Portada
METAR-TAF:

METAR-TAF

Aeroports :

Culdrose, Anglaterra

latitud: 50-05N, longitud: 005-15W, altitud: 78 m

Observació

L'informe es va fer fa 1 hora i 22 minuts, a les 22:50 UTC
Vent 10 kt del Sud
Temperatura 5°C
Humitat 87%
Pressió 1015 hPa
Visibilitat 10 km o més

METAR: EGDR 272250Z AUTO 19010KT 9999 // BKN120/// 05/03 Q1015

Hora: 00:12 (00:12 UTC)

Pronòstic

L'informe es va fer fa 10 hores i 44 minuts, a les 13:28 UTC
Pronòstic vàlid del 27 a les 15 UTC al 27 a les 24 UTC
Vent 10 kt del Nord/Nord-Oest
Visibilitat 10 km o més
Núvols disperses a una alçada de 3000 ft

TAF: EGDR 271328Z 2715/2724 33010KT 9999 SCT030

Observacions i pronòstics meteorològics de més de 4000 aeroports (METAR i TAF).

Les estacions disponibles són els punts grocs i vermells al mapa.

Posi el ratolí al punt desitjat per veure el nom de l'estació.

Feu clic per veure les observacions i els pronòstics meteorològics.

Per canviar el mapa: feu clic els botons verds amb una creu de color negre per apropar; al botó verd amb un guió per allunyar la imatge; o en les fletxes verdes per a mapes adjacents.


METAR-TAF: